Time;durP1;ratioP1;P1;durP2;ratioP2;P2;SDS_P1;SDS_P2;PMS_P1;PMS_P2;Temp;Humidity;BMP_temperature;BMP_pressure;BME280_temperature;BME280_humidity;BME280_pressure;Samples;Min_cycle;Max_cycle;Signal;HPM_P1;HPM_P2
2023/08/30 00:02:20;;;;;;;3.67;2.10;;;13.90;99.90;;;;;;5039345;28;20520;-50
2023/08/30 00:04:46;;;;;;;3.37;2.10;;;13.90;99.90;;;;;;5031626;28;20525;-51
2023/08/30 00:07:13;;;;;;;2.70;2.27;;;13.90;99.90;;;;;;5030682;28;20510;-50
2023/08/30 00:09:39;;;;;;;2.40;2.00;;;13.90;99.90;;;;;;5039446;28;20507;-51
2023/08/30 00:12:06;;;;;;;3.70;2.10;;;13.90;99.90;;;;;;5035266;28;20533;-50
2023/08/30 00:14:33;;;;;;;2.60;1.90;;;13.90;99.90;;;;;;5029550;28;20458;-50
2023/08/30 00:17:01;;;;;;;3.23;2.47;;;13.80;99.90;;;;;;5030096;28;20497;-50
2023/08/30 00:19:28;;;;;;;4.00;2.60;;;13.80;99.90;;;;;;5032547;28;20509;-51
2023/08/30 00:21:55;;;;;;;2.70;2.50;;;13.80;99.90;;;;;;5031650;28;20494;-51
2023/08/30 00:24:21;;;;;;;11.37;2.03;;;13.80;99.90;;;;;;5027919;28;20499;-50
2023/08/30 00:26:48;;;;;;;2.40;2.20;;;13.90;99.90;;;;;;5029376;28;20564;-52
2023/08/30 00:29:14;;;;;;;5.03;2.20;;;13.80;99.90;;;;;;5031989;28;20459;-51
2023/08/30 00:31:41;;;;;;;4.07;2.13;;;13.80;99.90;;;;;;5031633;28;20858;-52
2023/08/30 00:34:09;;;;;;;6.63;2.50;;;13.80;99.90;;;;;;5026289;28;20867;-52
2023/08/30 00:36:35;;;;;;;4.93;2.30;;;13.70;99.90;;;;;;5041766;28;20516;-52
2023/08/30 00:39:03;;;;;;;6.77;2.87;;;13.70;99.90;;;;;;5029690;28;20545;-51
2023/08/30 00:41:30;;;;;;;4.07;2.70;;;13.80;99.90;;;;;;5034735;28;20460;-51
2023/08/30 00:43:56;;;;;;;8.43;2.90;;;13.70;99.90;;;;;;5034476;28;20492;-52
2023/08/30 00:46:23;;;;;;;3.57;2.33;;;13.70;99.90;;;;;;5046137;28;20458;-50
2023/08/30 00:48:50;;;;;;;3.07;2.87;;;13.70;99.90;;;;;;5034268;28;20965;-50
2023/08/30 00:51:18;;;;;;;3.20;2.73;;;13.70;99.90;;;;;;5037738;28;20462;-50
2023/08/30 00:53:45;;;;;;;3.60;2.40;;;13.70;99.90;;;;;;5044469;28;20500;-51
2023/08/30 00:56:12;;;;;;;7.43;2.73;;;13.80;99.90;;;;;;5032877;28;20451;-50
2023/08/30 00:58:38;;;;;;;3.57;2.50;;;13.70;99.90;;;;;;5030402;28;20502;-50
2023/08/30 01:01:07;;;;;;;2.30;2.20;;;13.80;99.90;;;;;;5040194;28;20534;-51
2023/08/30 01:03:34;;;;;;;6.37;3.30;;;13.70;99.90;;;;;;5024864;28;20469;-51
2023/08/30 01:06:01;;;;;;;3.97;3.03;;;13.70;99.90;;;;;;5031309;28;20516;-50
2023/08/30 01:08:29;;;;;;;12.80;3.03;;;13.70;99.90;;;;;;5028297;28;20921;-50
2023/08/30 01:11:10;;;;;;;2.90;2.70;;;13.70;99.90;;;;;;5030857;28;20528;-51
2023/08/30 01:13:44;;;;;;;5.47;2.83;;;13.70;99.90;;;;;;5030515;28;20462;-51
2023/08/30 01:16:10;;;;;;;6.00;2.40;;;13.70;99.90;;;;;;5034741;28;20458;-50
2023/08/30 01:18:39;;;;;;;3.03;2.83;;;13.70;99.90;;;;;;5031362;28;20509;-52
2023/08/30 01:21:12;;;;;;;3.20;2.90;;;13.70;99.90;;;;;;5033793;28;20466;-52
2023/08/30 01:23:49;;;;;;;15.53;3.00;;;13.60;99.90;;;;;;5034073;28;20461;-50
2023/08/30 01:26:26;;;;;;;2.47;2.30;;;13.60;99.90;;;;;;5028041;28;20454;-50
2023/08/30 01:28:56;;;;;;;3.23;2.43;;;13.60;99.90;;;;;;5031448;28;20453;-52
2023/08/30 01:31:24;;;;;;;3.10;2.90;;;13.50;99.90;;;;;;5039154;28;20455;-51
2023/08/30 01:33:51;;;;;;;2.47;2.37;;;13.60;99.90;;;;;;5033021;28;20520;-51
2023/08/30 01:36:18;;;;;;;3.23;2.53;;;13.50;99.90;;;;;;5033203;28;20508;-52
2023/08/30 01:38:46;;;;;;;9.90;3.30;;;13.50;99.90;;;;;;5030692;28;20458;-51
2023/08/30 01:41:13;;;;;;;2.50;2.10;;;13.50;99.90;;;;;;5038157;28;20455;-52
2023/08/30 01:43:40;;;;;;;9.80;3.00;;;13.50;99.90;;;;;;5033540;28;20458;-50
2023/08/30 01:46:09;;;;;;;4.10;2.77;;;13.50;99.90;;;;;;5030290;28;20467;-51
2023/08/30 01:48:37;;;;;;;6.30;3.03;;;13.50;99.90;;;;;;5042525;28;20512;-51
2023/08/30 01:51:04;;;;;;;4.20;2.67;;;13.50;99.90;;;;;;5033607;28;20475;-51
2023/08/30 01:53:32;;;;;;;2.83;2.63;;;13.50;99.90;;;;;;5030309;28;20875;-51
2023/08/30 01:55:59;;;;;;;6.50;2.97;;;13.50;99.90;;;;;;5026395;28;20523;-50
2023/08/30 01:58:25;;;;;;;4.50;3.13;;;13.50;99.90;;;;;;5041610;28;20531;-51
2023/08/30 02:00:52;;;;;;;3.40;2.80;;;13.50;99.90;;;;;;5034355;28;20477;-52
2023/08/30 02:03:20;;;;;;;3.37;2.90;;;13.50;99.90;;;;;;5035073;28;20548;-51
2023/08/30 02:05:58;;;;;;;5.63;2.73;;;13.50;99.90;;;;;;5032176;28;20462;-50
2023/08/30 02:08:30;;;;;;;3.10;2.60;;;13.50;99.90;;;;;;5032816;28;20479;-51
2023/08/30 02:11:02;;;;;;;6.27;2.90;;;13.40;99.90;;;;;;5032688;28;20944;-51
2023/08/30 02:13:31;;;;;;;3.40;3.10;;;13.40;99.90;;;;;;5039771;28;20458;-50
2023/08/30 02:16:01;;;;;;;3.53;3.23;;;13.40;99.90;;;;;;5039273;28;20461;-50
2023/08/30 02:18:29;;;;;;;3.87;3.17;;;13.40;99.90;;;;;;5046458;28;20477;-51
2023/08/30 02:20:56;;;;;;;4.23;3.00;;;13.40;99.90;;;;;;5048421;28;20538;-50
2023/08/30 02:23:24;;;;;;;4.13;3.00;;;13.40;99.90;;;;;;5043232;28;20462;-51
2023/08/30 02:25:50;;;;;;;4.60;3.37;;;13.40;99.90;;;;;;5035505;28;20462;-51
2023/08/30 02:28:17;;;;;;;4.23;3.47;;;13.40;99.90;;;;;;5039847;28;20536;-52
2023/08/30 02:30:43;;;;;;;6.67;3.20;;;13.30;99.90;;;;;;5043249;28;21086;-51
2023/08/30 02:33:10;;;;;;;3.93;2.90;;;13.30;99.90;;;;;;5048928;28;20462;-50
2023/08/30 02:35:38;;;;;;;3.20;3.00;;;13.30;99.90;;;;;;5041153;28;20489;-51
2023/08/30 02:38:05;;;;;;;3.77;3.47;;;13.30;99.90;;;;;;5028483;28;20490;-51
2023/08/30 02:40:32;;;;;;;17.67;3.00;;;13.30;99.90;;;;;;5035747;28;20576;-51
2023/08/30 02:42:58;;;;;;;4.27;2.77;;;13.30;99.90;;;;;;5033492;28;20463;-50
2023/08/30 02:45:25;;;;;;;9.53;3.00;;;13.30;99.90;;;;;;5041078;28;20519;-51
2023/08/30 02:47:51;;;;;;;5.70;3.30;;;13.30;99.90;;;;;;5032220;28;20956;-50
2023/08/30 02:50:18;;;;;;;3.40;2.93;;;13.20;99.90;;;;;;5041485;28;20461;-51
2023/08/30 02:52:46;;;;;;;3.60;3.30;;;13.20;99.90;;;;;;5035725;28;20521;-50
2023/08/30 02:55:13;;;;;;;3.20;2.90;;;13.20;99.90;;;;;;5027380;28;20446;-50
2023/08/30 02:57:39;;;;;;;6.33;3.37;;;13.10;99.90;;;;;;5032831;28;20521;-51
2023/08/30 03:00:08;;;;;;;2.70;2.50;;;13.20;99.90;;;;;;5030540;28;20988;-51
2023/08/30 03:02:35;;;;;;;5.17;2.73;;;13.10;99.90;;;;;;5029612;28;20463;-51
2023/08/30 03:05:03;;;;;;;3.07;2.87;;;13.00;99.90;;;;;;5031542;28;20489;-50
2023/08/30 03:07:30;;;;;;;3.27;2.97;;;13.00;99.90;;;;;;5038242;28;20991;-50
2023/08/30 03:09:58;;;;;;;3.03;2.63;;;12.90;99.90;;;;;;5031798;28;20493;-51
2023/08/30 03:12:25;;;;;;;3.13;2.70;;;12.90;99.90;;;;;;5035446;28;20458;-51
2023/08/30 03:14:51;;;;;;;3.37;2.77;;;13.00;99.90;;;;;;5027711;28;20466;-51
2023/08/30 03:17:18;;;;;;;3.13;2.90;;;12.90;99.90;;;;;;5025752;28;20483;-52
2023/08/30 03:19:45;;;;;;;8.70;3.17;;;12.80;99.90;;;;;;5038813;28;20475;-51
2023/08/30 03:22:11;;;;;;;3.20;2.97;;;12.80;99.90;;;;;;5032521;28;20520;-51
2023/08/30 03:24:38;;;;;;;3.83;2.80;;;12.70;99.90;;;;;;5036238;28;20458;-50
2023/08/30 03:27:06;;;;;;;3.40;3.10;;;12.80;99.90;;;;;;5035319;28;20536;-50
2023/08/30 03:29:32;;;;;;;3.93;3.50;;;12.80;99.90;;;;;;5032389;28;20458;-51
2023/08/30 03:31:59;;;;;;;5.93;3.87;;;12.80;99.90;;;;;;5028908;28;20520;-52
2023/08/30 03:34:25;;;;;;;8.30;2.80;;;12.70;99.90;;;;;;5031792;28;20467;-51
2023/08/30 03:36:54;;;;;;;7.13;3.37;;;12.70;99.90;;;;;;5034706;28;20543;-50
2023/08/30 03:39:20;;;;;;;4.70;3.50;;;12.70;99.90;;;;;;5032397;28;20509;-52
2023/08/30 03:41:47;;;;;;;6.07;3.27;;;12.70;99.90;;;;;;5032461;28;20955;-52
2023/08/30 03:44:15;;;;;;;3.70;3.40;;;12.70;99.90;;;;;;5033300;28;20525;-51
2023/08/30 03:46:42;;;;;;;3.70;2.90;;;12.80;99.90;;;;;;5031040;28;20528;-52
2023/08/30 03:49:08;;;;;;;5.87;4.07;;;12.80;99.90;;;;;;5031048;28;20451;-52
2023/08/30 03:51:35;;;;;;;5.23;3.80;;;12.80;99.90;;;;;;5038507;28;20457;-51
2023/08/30 03:54:02;;;;;;;3.77;3.57;;;12.80;99.90;;;;;;5031577;28;20485;-52
2023/08/30 03:56:28;;;;;;;4.00;3.70;;;12.80;99.90;;;;;;5030933;28;20478;-51
2023/08/30 03:58:55;;;;;;;4.10;3.40;;;12.80;99.90;;;;;;5040218;28;20462;-52
2023/08/30 04:01:23;;;;;;;4.07;3.70;;;12.80;99.90;;;;;;5034524;28;20529;-52
2023/08/30 04:03:49;;;;;;;6.90;3.90;;;12.80;99.90;;;;;;5039885;28;20500;-54
2023/08/30 04:06:16;;;;;;;5.53;4.17;;;12.80;99.90;;;;;;5030099;28;20454;-52
2023/08/30 04:08:42;;;;;;;11.43;4.33;;;12.80;99.90;;;;;;5035966;28;20458;-52
2023/08/30 04:11:09;;;;;;;11.20;4.40;;;12.90;99.90;;;;;;5037043;28;20459;-52
2023/08/30 04:13:36;;;;;;;4.70;4.30;;;12.90;99.90;;;;;;5031636;28;20462;-52
2023/08/30 04:16:03;;;;;;;4.80;4.30;;;12.90;99.90;;;;;;5032278;28;20558;-51
2023/08/30 04:18:31;;;;;;;6.03;4.10;;;12.90;99.90;;;;;;5035141;28;20486;-53
2023/08/30 04:20:59;;;;;;;11.30;4.43;;;12.90;99.90;;;;;;5034694;28;20541;-51
2023/08/30 04:23:26;;;;;;;5.77;4.70;;;12.90;99.90;;;;;;5029858;28;20458;-51
2023/08/30 04:25:53;;;;;;;5.60;5.10;;;12.90;99.90;;;;;;5021416;28;20459;-51
2023/08/30 04:28:20;;;;;;;5.23;4.07;;;12.90;99.90;;;;;;5025323;28;20478;-51
2023/08/30 04:30:46;;;;;;;5.93;4.13;;;12.90;99.90;;;;;;5024843;28;20458;-52
2023/08/30 04:33:13;;;;;;;5.60;4.73;;;12.90;99.90;;;;;;5032877;28;20533;-53
2023/08/30 04:35:41;;;;;;;6.50;5.50;;;13.00;99.90;;;;;;5042749;28;20519;-52
2023/08/30 04:38:07;;;;;;;11.60;5.83;;;13.00;99.90;;;;;;5026487;28;20486;-51
2023/08/30 04:40:34;;;;;;;5.17;4.73;;;13.00;99.90;;;;;;5028112;28;20896;-51
2023/08/30 04:43:00;;;;;;;7.80;4.33;;;13.10;99.90;;;;;;5031504;28;20487;-52
2023/08/30 04:45:29;;;;;;;4.67;4.23;;;13.00;99.90;;;;;;5027511;28;20463;-50
2023/08/30 04:47:56;;;;;;;8.33;4.80;;;13.00;99.90;;;;;;5024943;28;20490;-51
2023/08/30 04:50:22;;;;;;;4.70;4.20;;;13.00;99.90;;;;;;5030137;28;20536;-51
2023/08/30 04:52:50;;;;;;;7.77;4.57;;;13.10;99.90;;;;;;5039689;28;20469;-50
2023/08/30 04:55:17;;;;;;;5.33;4.83;;;13.00;99.90;;;;;;5034511;28;20470;-51
2023/08/30 04:57:44;;;;;;;5.20;4.90;;;13.10;99.90;;;;;;5024851;28;20487;-51
2023/08/30 05:00:12;;;;;;;5.80;5.30;;;13.10;99.90;;;;;;5027672;28;20483;-51
2023/08/30 05:02:39;;;;;;;14.70;5.13;;;13.10;99.90;;;;;;5031667;28;20572;-52
2023/08/30 05:05:06;;;;;;;5.23;4.70;;;13.10;99.90;;;;;;5026524;28;20463;-51
2023/08/30 05:07:32;;;;;;;5.20;4.70;;;13.20;99.90;;;;;;5029274;28;20475;-52
2023/08/30 05:10:00;;;;;;;4.90;4.50;;;13.20;99.90;;;;;;5037972;28;20481;-52
2023/08/30 05:12:27;;;;;;;6.07;4.77;;;13.30;99.90;;;;;;5024875;28;20466;-52
2023/08/30 05:14:54;;;;;;;6.17;4.80;;;13.30;99.90;;;;;;5031091;28;20466;-58
2023/08/30 05:17:20;;;;;;;10.70;5.70;;;13.30;99.90;;;;;;5037043;28;20486;-51
2023/08/30 05:19:47;;;;;;;7.53;4.97;;;13.40;99.90;;;;;;5031004;28;20492;-51
2023/08/30 05:22:13;;;;;;;10.13;5.20;;;13.40;99.90;;;;;;5029582;28;20944;-53
2023/08/30 05:24:40;;;;;;;9.63;4.50;;;13.50;99.90;;;;;;5026325;28;20477;-51
2023/08/30 05:27:09;;;;;;;6.60;4.80;;;13.50;99.90;;;;;;5035746;28;20890;-52
2023/08/30 05:29:35;;;;;;;4.80;4.40;;;13.60;99.90;;;;;;5041593;28;20459;-52
2023/08/30 05:32:02;;;;;;;6.33;5.13;;;13.60;99.90;;;;;;5035768;28;20450;-52
2023/08/30 05:34:28;;;;;;;9.20;5.10;;;13.70;99.90;;;;;;5033230;28;20470;-53
2023/08/30 05:36:55;;;;;;;4.63;4.23;;;13.70;99.90;;;;;;5026698;28;20482;-51
2023/08/30 05:39:22;;;;;;;5.83;4.93;;;13.70;99.90;;;;;;5030914;28;20463;-52
2023/08/30 05:41:48;;;;;;;10.73;4.87;;;13.80;99.90;;;;;;5035484;28;20482;-50
2023/08/30 05:44:16;;;;;;;5.27;4.70;;;13.80;99.90;;;;;;5031797;28;20737;-52
2023/08/30 05:46:43;;;;;;;6.17;4.43;;;13.80;99.90;;;;;;5041948;28;20498;-51
2023/08/30 05:49:09;;;;;;;5.20;4.70;;;13.90;99.90;;;;;;5049699;28;20461;-52
2023/08/30 05:51:36;;;;;;;4.73;4.37;;;13.90;99.90;;;;;;5053566;28;20463;-51
2023/08/30 05:54:03;;;;;;;8.70;4.27;;;13.90;99.90;;;;;;5051966;28;20477;-52
2023/08/30 05:56:29;;;;;;;4.93;4.47;;;14.00;99.90;;;;;;5052342;28;20561;-51
2023/08/30 05:58:56;;;;;;;4.70;4.27;;;14.00;99.90;;;;;;5051603;28;20549;-51
2023/08/30 06:01:24;;;;;;;4.40;4.00;;;14.00;99.90;;;;;;5049627;28;20474;-53
2023/08/30 06:03:51;;;;;;;4.83;4.37;;;14.10;99.90;;;;;;5034544;28;20839;-51
2023/08/30 06:06:18;;;;;;;5.20;4.70;;;14.10;99.90;;;;;;5028618;28;20580;-51
2023/08/30 06:08:44;;;;;;;4.50;4.10;;;14.10;99.90;;;;;;5024906;28;21028;-51
2023/08/30 06:11:11;;;;;;;4.80;4.40;;;14.10;99.90;;;;;;5031971;28;20459;-51
2023/08/30 06:13:37;;;;;;;5.23;4.43;;;14.20;99.90;;;;;;5031422;28;20944;-51
2023/08/30 06:16:04;;;;;;;5.20;4.30;;;14.20;99.90;;;;;;5043183;28;20500;-51
2023/08/30 06:18:32;;;;;;;5.77;4.27;;;14.20;99.90;;;;;;5027785;28;20482;-51
2023/08/30 06:20:59;;;;;;;6.30;4.80;;;14.20;99.90;;;;;;5033526;28;20536;-52
2023/08/30 06:23:25;;;;;;;5.33;4.30;;;14.30;99.90;;;;;;5032226;28;20937;-51
2023/08/30 06:25:55;;;;;;;6.07;4.30;;;14.30;99.90;;;;;;5033992;28;20463;-52
2023/08/30 06:28:23;;;;;;;8.20;4.77;;;14.40;99.90;;;;;;5024518;28;20486;-51
2023/08/30 06:30:50;;;;;;;4.73;4.33;;;14.40;99.90;;;;;;5038179;28;20442;-52
2023/08/30 06:33:17;;;;;;;5.47;4.60;;;14.50;99.90;;;;;;5043094;28;20945;-51
2023/08/30 06:35:45;;;;;;;5.27;4.50;;;14.50;99.90;;;;;;5032646;28;20888;-51
2023/08/30 06:38:11;;;;;;;4.93;4.50;;;14.50;99.90;;;;;;5037914;28;20490;-50
2023/08/30 06:40:43;;;;;;;4.87;4.47;;;14.50;99.90;;;;;;5025970;28;20509;-51
2023/08/30 06:43:09;;;;;;;14.80;6.00;;;14.60;99.90;;;;;;5028067;28;20512;-52
2023/08/30 06:45:36;;;;;;;5.07;4.67;;;14.60;99.90;;;;;;5038896;28;20507;-52
2023/08/30 06:48:03;;;;;;;8.63;4.67;;;14.60;99.90;;;;;;5030828;28;20915;-53
2023/08/30 06:50:30;;;;;;;5.10;4.50;;;14.70;99.90;;;;;;5037833;28;20457;-51
2023/08/30 06:52:58;;;;;;;9.30;4.90;;;14.60;99.90;;;;;;5030055;28;20522;-52
2023/08/30 06:55:24;;;;;;;4.63;4.17;;;14.60;99.90;;;;;;5042632;28;20509;-51
2023/08/30 06:57:51;;;;;;;5.87;4.53;;;14.70;99.90;;;;;;5037373;28;20483;-51
2023/08/30 07:00:18;;;;;;;4.17;3.87;;;14.70;99.90;;;;;;5023098;28;20462;-52
2023/08/30 07:02:45;;;;;;;7.80;4.60;;;14.80;99.90;;;;;;5037792;28;20511;-52
2023/08/30 07:05:12;;;;;;;6.80;4.27;;;14.80;99.90;;;;;;5014671;28;20468;-50
2023/08/30 07:07:39;;;;;;;4.50;4.10;;;14.80;99.90;;;;;;5028779;28;20502;-51
2023/08/30 07:10:08;;;;;;;3.67;3.47;;;14.90;99.90;;;;;;5029499;28;20451;-51
2023/08/30 07:12:35;;;;;;;5.70;4.10;;;14.90;99.90;;;;;;5037045;28;20442;-51
2023/08/30 07:15:03;;;;;;;7.27;4.63;;;14.90;99.90;;;;;;5029847;28;20458;-51
2023/08/30 07:17:29;;;;;;;4.40;4.00;;;15.00;99.90;;;;;;5024705;28;20485;-52
2023/08/30 07:19:56;;;;;;;4.40;4.00;;;15.00;99.90;;;;;;5030926;28;20513;-51
2023/08/30 07:22:22;;;;;;;11.90;4.83;;;15.00;99.90;;;;;;5041338;28;20514;-51
2023/08/30 07:24:49;;;;;;;4.67;4.17;;;15.10;99.90;;;;;;5027681;28;20467;-51
2023/08/30 07:27:17;;;;;;;5.10;4.37;;;15.00;99.90;;;;;;5039228;28;20477;-52
2023/08/30 07:29:43;;;;;;;6.80;5.47;;;15.10;99.90;;;;;;5030256;28;20455;-52
2023/08/30 07:32:10;;;;;;;5.30;4.80;;;15.10;99.90;;;;;;5050006;28;20458;-53
2023/08/30 07:34:37;;;;;;;5.27;4.77;;;15.10;99.90;;;;;;5035532;28;20560;-52
2023/08/30 07:37:04;;;;;;;8.80;4.70;;;15.10;99.90;;;;;;5035311;28;20482;-53
2023/08/30 07:39:30;;;;;;;8.80;4.33;;;15.10;99.90;;;;;;5046719;28;20513;-52
2023/08/30 07:41:57;;;;;;;5.60;4.10;;;15.10;99.90;;;;;;5032773;28;20482;-53
2023/08/30 07:44:25;;;;;;;5.10;4.63;;;15.10;99.90;;;;;;5027216;28;20463;-52
2023/08/30 07:46:52;;;;;;;12.37;4.30;;;15.10;99.90;;;;;;5025129;28;20466;-52
2023/08/30 07:49:19;;;;;;;4.83;4.30;;;15.20;99.90;;;;;;5027672;28;20463;-52
2023/08/30 07:51:46;;;;;;;4.40;4.00;;;15.20;99.90;;;;;;5029649;28;20458;-51
2023/08/30 07:54:13;;;;;;;6.90;4.57;;;15.20;99.90;;;;;;5020599;28;20813;-52
2023/08/30 07:56:39;;;;;;;4.80;4.40;;;15.30;99.90;;;;;;5032006;28;20525;-51
2023/08/30 07:59:06;;;;;;;5.47;4.97;;;15.20;99.90;;;;;;5030977;28;20458;-52
2023/08/30 08:01:34;;;;;;;5.47;4.70;;;15.30;99.90;;;;;;5031266;28;20536;-51
2023/08/30 08:04:00;;;;;;;18.20;5.43;;;15.30;99.90;;;;;;5049586;28;20446;-53
2023/08/30 08:06:27;;;;;;;29.30;5.37;;;15.30;99.90;;;;;;5023599;28;20458;-52
2023/08/30 08:08:53;;;;;;;21.60;6.77;;;15.30;99.90;;;;;;5029982;28;20561;-52
2023/08/30 08:11:20;;;;;;;12.93;4.73;;;15.40;99.90;;;;;;5036654;28;20464;-52
2023/08/30 08:13:47;;;;;;;4.87;4.37;;;15.50;99.90;;;;;;5031019;28;20465;-52
2023/08/30 08:16:14;;;;;;;5.17;4.67;;;15.60;99.90;;;;;;5025256;28;20529;-52
2023/08/30 08:18:42;;;;;;;5.07;4.20;;;15.70;99.90;;;;;;5030915;28;20516;-52
2023/08/30 08:21:08;;;;;;;4.80;4.33;;;15.70;99.90;;;;;;5026954;28;20473;-52
2023/08/30 08:23:35;;;;;;;5.40;4.30;;;15.80;99.90;;;;;;5029660;28;20458;-52
2023/08/30 08:26:02;;;;;;;6.30;3.77;;;15.80;99.90;;;;;;5038027;28;20579;-51
2023/08/30 08:28:29;;;;;;;8.87;4.50;;;15.90;99.90;;;;;;5015613;28;20479;-52
2023/08/30 08:30:55;;;;;;;9.27;4.20;;;15.90;99.90;;;;;;5026676;28;20463;-52
2023/08/30 08:33:23;;;;;;;8.00;4.67;;;16.00;99.90;;;;;;5027262;28;20458;-51
2023/08/30 08:35:51;;;;;;;5.00;3.60;;;16.10;99.90;;;;;;5026085;28;20470;-52
2023/08/30 08:38:18;;;;;;;6.47;4.10;;;16.20;99.90;;;;;;5026334;28;20470;-51
2023/08/30 08:40:45;;;;;;;6.47;4.27;;;16.30;99.90;;;;;;5024578;28;20518;-51
2023/08/30 08:43:12;;;;;;;10.33;4.90;;;16.30;99.90;;;;;;5026891;28;20838;-51
2023/08/30 08:45:39;;;;;;;3.97;3.67;;;16.40;99.90;;;;;;5024745;28;20495;-51
2023/08/30 08:48:07;;;;;;;3.70;3.40;;;16.40;99.90;;;;;;5030124;28;20495;-52
2023/08/30 08:50:34;;;;;;;7.13;3.50;;;16.50;99.90;;;;;;5029601;28;20520;-51
2023/08/30 08:53:03;;;;;;;5.07;3.40;;;16.60;99.90;;;;;;5031385;28;20481;-51
2023/08/30 08:55:31;;;;;;;4.33;3.93;;;16.70;99.90;;;;;;5022354;28;20455;-52
2023/08/30 08:57:59;;;;;;;3.47;3.27;;;16.60;99.90;;;;;;5028508;28;20478;-50
2023/08/30 09:00:26;;;;;;;3.40;3.10;;;16.80;99.90;;;;;;5027797;28;20458;-51
2023/08/30 09:02:54;;;;;;;4.07;2.90;;;16.90;99.90;;;;;;5023698;28;21330;-51
2023/08/30 09:05:21;;;;;;;3.47;2.60;;;17.00;99.90;;;;;;5024239;28;20459;-53
2023/08/30 09:07:48;;;;;;;5.67;2.93;;;17.20;99.90;;;;;;5033768;28;20475;-53
2023/08/30 09:10:16;;;;;;;3.73;3.30;;;17.30;22.50;;;;;;5028885;28;20462;-52
2023/08/30 09:12:43;;;;;;;3.63;2.70;;;17.40;40.70;;;;;;5028361;28;20467;-51
2023/08/30 09:15:10;;;;;;;3.43;2.40;;;17.30;68.10;;;;;;5033592;28;20492;-51
2023/08/30 09:17:38;;;;;;;2.70;2.50;;;17.30;81.90;;;;;;5034480;28;20486;-52
2023/08/30 09:20:10;;;;;;;2.63;2.17;;;17.40;76.30;;;;;;5040265;28;20489;-52
2023/08/30 09:22:37;;;;;;;4.30;2.47;;;17.50;67.70;;;;;;5033617;28;20487;-52
2023/08/30 09:25:05;;;;;;;4.77;3.00;;;17.70;50.90;;;;;;5030689;28;20465;-52
2023/08/30 09:27:36;;;;;;;3.10;2.87;;;17.70;63.40;;;;;;5031127;28;20478;-52
2023/08/30 09:30:05;;;;;;;31.10;5.30;;;17.80;75.10;;;;;;5028840;28;20466;-51
2023/08/30 09:32:32;;;;;;;3.17;2.87;;;17.90;67.40;;;;;;5027901;28;20818;-51
2023/08/30 09:34:58;;;;;;;3.57;2.17;;;18.00;77.50;;;;;;5027617;28;20512;-51
2023/08/30 09:37:26;;;;;;;6.47;2.33;;;18.20;82.40;;;;;;5031972;28;20478;-51
2023/08/30 09:39:53;;;;;;;6.33;2.13;;;18.40;67.50;;;;;;5043405;28;20480;-53
2023/08/30 09:42:20;;;;;;;3.50;2.53;;;18.50;89.10;;;;;;5032505;28;20486;-53
2023/08/30 09:44:48;;;;;;;2.93;2.43;;;18.70;99.90;;;;;;5030128;28;20458;-52
2023/08/30 09:47:18;;;;;;;4.20;2.00;;;18.90;99.90;;;;;;5028521;28;20498;-52
2023/08/30 09:49:46;;;;;;;4.60;2.50;;;19.40;99.90;;;;;;5034631;28;20510;-52
2023/08/30 09:52:16;;;;;;;3.27;1.77;;;19.60;99.90;;;;;;5030274;28;20487;-53
2023/08/30 09:54:45;;;;;;;5.97;2.10;;;19.40;99.90;;;;;;5040649;28;21201;-52
2023/08/30 09:57:12;;;;;;;12.50;1.87;;;19.40;99.90;;;;;;5029352;28;20470;-51
2023/08/30 09:59:40;;;;;;;1.80;1.70;;;19.30;99.90;;;;;;5027665;28;20455;-54
2023/08/30 10:02:09;;;;;;;2.20;1.60;;;19.50;99.90;;;;;;5028172;28;20552;-51
2023/08/30 10:04:39;;;;;;;9.40;1.50;;;19.30;99.90;;;;;;5026823;28;20508;-52
2023/08/30 10:07:07;;;;;;;4.10;2.07;;;19.20;99.90;;;;;;5028824;28;20483;-51
2023/08/30 10:09:34;;;;;;;6.40;2.17;;;19.30;99.90;;;;;;5026824;28;20877;-53
2023/08/30 10:12:02;;;;;;;2.13;1.80;;;19.60;99.90;;;;;;5027762;28;20466;-53
2023/08/30 10:14:29;;;;;;;2.40;1.23;;;19.60;99.90;;;;;;5030475;28;20455;-53
2023/08/30 10:17:02;;;;;;;9.20;1.90;;;20.00;99.90;;;;;;5033968;28;20481;-53
2023/08/30 10:19:31;;;;;;;3.30;1.33;;;20.70;99.90;;;;;;5036171;28;20521;-53
2023/08/30 10:22:04;;;;;;;4.13;1.50;;;21.50;81.80;;;;;;5030461;28;20471;-52
2023/08/30 10:24:36;;;;;;;3.23;1.60;;;21.60;87.10;;;;;;5030861;28;20837;-53
2023/08/30 10:27:05;;;;;;;5.67;1.80;;;21.90;97.90;;;;;;5033585;28;20482;-54
2023/08/30 10:29:35;;;;;;;3.93;1.60;;;21.30;96.00;;;;;;5030470;28;20459;-54
2023/08/30 10:32:05;;;;;;;4.40;1.87;;;20.90;88.90;;;;;;5029424;28;20920;-52
2023/08/30 10:34:35;;;;;;;1.63;1.40;;;21.10;99.90;;;;;;5033256;28;20520;-51
2023/08/30 10:37:03;;;;;;;1.77;1.30;;;20.50;99.90;;;;;;5041455;28;20975;-53
2023/08/30 10:39:36;;;;;;;1.60;1.50;;;20.80;99.90;;;;;;5027414;28;20824;-52
2023/08/30 10:42:09;;;;;;;2.00;1.30;;;20.70;99.90;;;;;;5028681;28;20561;-52
2023/08/30 10:44:36;;;;;;;1.63;1.27;;;20.60;99.90;;;;;;5030451;28;20459;-50
2023/08/30 10:47:03;;;;;;;1.80;1.37;;;20.70;99.90;;;;;;5030378;28;20567;-50
2023/08/30 10:49:39;;;;;;;2.23;1.50;;;20.70;99.90;;;;;;5033140;28;20503;-50
2023/08/30 10:52:13;;;;;;;3.50;1.60;;;20.50;99.90;;;;;;5026842;28;20962;-50
2023/08/30 10:54:39;;;;;;;4.37;1.30;;;20.40;99.90;;;;;;5029801;28;20516;-50
2023/08/30 10:57:06;;;;;;;2.67;1.63;;;20.20;94.50;;;;;;5031580;28;20479;-50
2023/08/30 10:59:33;;;;;;;1.70;1.60;;;20.20;99.90;;;;;;5022793;28;20871;-50
2023/08/30 11:02:03;;;;;;;1.50;1.40;;;19.90;96.60;;;;;;5031563;28;20988;-50
2023/08/30 11:04:30;;;;;;;6.03;1.50;;;20.00;99.90;;;;;;5030251;28;20463;-50
2023/08/30 11:06:57;;;;;;;2.03;1.30;;;20.00;99.90;;;;;;5032037;28;20486;-50
2023/08/30 11:09:26;;;;;;;2.57;1.47;;;20.20;99.90;;;;;;5038965;28;20510;-50
2023/08/30 11:11:53;;;;;;;1.33;1.23;;;20.10;99.90;;;;;;5043641;28;20455;-50
2023/08/30 11:14:20;;;;;;;1.80;1.50;;;20.30;99.90;;;;;;5026577;28;20588;-50
2023/08/30 11:16:47;;;;;;;1.40;1.30;;;20.40;99.90;;;;;;5027863;28;20478;-51
2023/08/30 11:19:13;;;;;;;4.10;1.40;;;20.30;99.90;;;;;;5036342;28;20554;-50
2023/08/30 11:21:43;;;;;;;1.60;1.40;;;19.90;99.90;;;;;;5029317;28;20473;-50
2023/08/30 11:24:11;;;;;;;3.67;1.80;;;20.00;99.90;;;;;;5027980;28;20458;-49
2023/08/30 11:26:39;;;;;;;4.40;1.93;;;20.00;99.90;;;;;;5031008;28;20486;-49
2023/08/30 11:29:06;;;;;;;1.87;1.57;;;20.10;99.70;;;;;;5031657;28;20462;-50
2023/08/30 11:31:33;;;;;;;4.63;1.40;;;20.10;99.90;;;;;;5036101;28;20513;-50
2023/08/30 11:34:01;;;;;;;1.40;1.30;;;20.10;99.90;;;;;;5032656;28;20454;-50
2023/08/30 11:36:29;;;;;;;2.40;1.80;;;20.00;99.90;;;;;;5045872;28;20442;-50
2023/08/30 11:38:56;;;;;;;1.90;1.57;;;19.90;99.90;;;;;;5038956;28;20528;-51
2023/08/30 11:41:24;;;;;;;3.40;2.50;;;19.70;87.60;;;;;;5043524;28;20470;-50
2023/08/30 11:43:52;;;;;;;2.20;2.00;;;19.80;90.10;;;;;;5035539;28;20475;-51
2023/08/30 11:46:19;;;;;;;3.20;1.50;;;19.90;80.60;;;;;;5029079;28;20987;-50
2023/08/30 11:48:48;;;;;;;3.07;2.00;;;19.90;89.50;;;;;;5038226;28;20501;-50
2023/08/30 11:51:15;;;;;;;5.20;1.90;;;19.90;94.40;;;;;;5024768;28;20466;-50
2023/08/30 11:53:42;;;;;;;1.50;1.40;;;19.80;85.40;;;;;;5038908;28;20606;-50
2023/08/30 11:56:09;;;;;;;2.50;1.77;;;19.70;85.50;;;;;;5044022;28;20512;-50
2023/08/30 11:58:36;;;;;;;3.87;1.80;;;19.60;79.90;;;;;;5024963;28;20565;-50
2023/08/30 12:01:05;;;;;;;1.37;1.13;;;19.60;82.10;;;;;;5022695;28;20491;-51
2023/08/30 12:03:32;;;;;;;2.70;1.90;;;19.60;89.00;;;;;;5019708;28;20483;-49
2023/08/30 12:05:59;;;;;;;3.00;1.70;;;19.50;92.00;;;;;;5027974;28;20881;-50
2023/08/30 12:08:27;;;;;;;3.53;1.50;;;19.70;86.60;;;;;;5042359;28;20481;-50
2023/08/30 12:10:55;;;;;;;1.87;1.67;;;19.70;86.40;;;;;;5027994;28;20824;-51
2023/08/30 12:13:23;;;;;;;1.50;1.40;;;19.60;91.80;;;;;;5022035;28;20466;-50
2023/08/30 12:15:50;;;;;;;3.07;1.80;;;19.60;84.00;;;;;;5024262;28;20470;-50
2023/08/30 12:18:22;;;;;;;3.87;1.50;;;19.60;80.70;;;;;;5033875;28;20500;-51
2023/08/30 12:20:53;;;;;;;1.63;1.53;;;19.60;86.10;;;;;;5024278;28;20474;-50
2023/08/30 12:23:23;;;;;;;2.53;1.40;;;19.80;85.30;;;;;;5027473;28;20519;-50
2023/08/30 12:26:00;;;;;;;2.93;1.80;;;19.80;94.70;;;;;;5024542;28;20467;-50
2023/08/30 12:28:27;;;;;;;5.57;1.40;;;19.90;99.90;;;;;;5027824;28;20517;-50
2023/08/30 12:30:54;;;;;;;4.20;1.73;;;20.00;97.70;;;;;;5033412;28;20535;-50
2023/08/30 12:33:22;;;;;;;8.13;1.90;;;20.20;99.90;;;;;;5028347;28;20463;-50
2023/08/30 12:35:49;;;;;;;2.50;1.80;;;20.40;99.90;;;;;;5027342;28;20467;-51
2023/08/30 12:38:18;;;;;;;2.10;1.60;;;20.40;99.90;;;;;;5037085;28;20486;-50
2023/08/30 12:40:45;;;;;;;1.73;1.40;;;20.40;99.90;;;;;;5019675;28;20454;-50
2023/08/30 12:43:12;;;;;;;7.07;1.20;;;20.30;99.90;;;;;;5025548;28;20517;-50
2023/08/30 12:45:40;;;;;;;3.53;1.80;;;20.40;99.90;;;;;;5013499;28;20461;-50
2023/08/30 12:48:07;;;;;;;1.87;1.60;;;20.40;99.90;;;;;;5023072;28;21018;-50